sensor_id;sensor_type;location;lat;lon;timestamp;temperature;humidity
39325;DHT22;25037;49.488;9.900;2022-10-16T00:01:28;17.90;78.20
39325;DHT22;25037;49.488;9.900;2022-10-16T00:03:55;17.80;78.30
39325;DHT22;25037;49.488;9.900;2022-10-16T00:06:22;17.80;78.20
39325;DHT22;25037;49.488;9.900;2022-10-16T00:08:48;17.80;78.30
39325;DHT22;25037;49.488;9.900;2022-10-16T00:13:42;17.80;78.40
39325;DHT22;25037;49.488;9.900;2022-10-16T00:16:10;17.80;78.40
39325;DHT22;25037;49.488;9.900;2022-10-16T00:18:36;17.80;78.40
39325;DHT22;25037;49.488;9.900;2022-10-16T00:21:08;17.80;78.40
39325;DHT22;25037;49.488;9.900;2022-10-16T00:23:34;17.80;78.40
39325;DHT22;25037;49.488;9.900;2022-10-16T00:26:04;17.70;78.30
39325;DHT22;25037;49.488;9.900;2022-10-16T00:28:30;17.70;78.40
39325;DHT22;25037;49.488;9.900;2022-10-16T00:30:55;17.60;78.30
39325;DHT22;25037;49.488;9.900;2022-10-16T00:33:21;17.60;78.30
39325;DHT22;25037;49.488;9.900;2022-10-16T00:35:47;17.50;78.30
39325;DHT22;25037;49.488;9.900;2022-10-16T00:38:13;17.50;78.30
39325;DHT22;25037;49.488;9.900;2022-10-16T00:40:39;17.40;78.30
39325;DHT22;25037;49.488;9.900;2022-10-16T00:45:56;17.30;78.60
39325;DHT22;25037;49.488;9.900;2022-10-16T00:48:21;17.30;78.70
39325;DHT22;25037;49.488;9.900;2022-10-16T00:50:47;17.30;78.70
39325;DHT22;25037;49.488;9.900;2022-10-16T00:53:13;17.30;78.70
39325;DHT22;25037;49.488;9.900;2022-10-16T00:55:39;17.30;78.80
39325;DHT22;25037;49.488;9.900;2022-10-16T00:58:05;17.30;78.80
39325;DHT22;25037;49.488;9.900;2022-10-16T01:00:31;17.30;78.70
39325;DHT22;25037;49.488;9.900;2022-10-16T01:03:00;17.30;78.80
39325;DHT22;25037;49.488;9.900;2022-10-16T01:05:49;17.40;78.90
39325;DHT22;25037;49.488;9.900;2022-10-16T01:08:45;17.40;78.90
39325;DHT22;25037;49.488;9.900;2022-10-16T01:11:33;17.40;78.80
39325;DHT22;25037;49.488;9.900;2022-10-16T01:14:07;17.40;78.80
39325;DHT22;25037;49.488;9.900;2022-10-16T01:17:00;17.40;78.90
39325;DHT22;25037;49.488;9.900;2022-10-16T01:19:39;17.40;78.90
39325;DHT22;25037;49.488;9.900;2022-10-16T01:22:08;17.40;78.90
39325;DHT22;25037;49.488;9.900;2022-10-16T01:24:44;17.40;78.80
39325;DHT22;25037;49.488;9.900;2022-10-16T01:27:26;17.40;78.90
39325;DHT22;25037;49.488;9.900;2022-10-16T01:38:04;17.40;79.00
39325;DHT22;25037;49.488;9.900;2022-10-16T01:40:34;17.50;78.90
39325;DHT22;25037;49.488;9.900;2022-10-16T01:43:06;17.50;79.00
39325;DHT22;25037;49.488;9.900;2022-10-16T01:45:33;17.50;79.00
39325;DHT22;25037;49.488;9.900;2022-10-16T01:48:01;17.50;79.00
39325;DHT22;25037;49.488;9.900;2022-10-16T01:50:31;17.50;79.00
39325;DHT22;25037;49.488;9.900;2022-10-16T01:52:58;17.50;79.00
39325;DHT22;25037;49.488;9.900;2022-10-16T01:55:29;17.40;79.10
39325;DHT22;25037;49.488;9.900;2022-10-16T01:57:59;17.40;79.10
39325;DHT22;25037;49.488;9.900;2022-10-16T02:00:26;17.40;79.10
39325;DHT22;25037;49.488;9.900;2022-10-16T02:02:54;17.40;79.20
39325;DHT22;25037;49.488;9.900;2022-10-16T02:05:46;17.50;79.20
39325;DHT22;25037;49.488;9.900;2022-10-16T02:08:12;17.50;79.20
39325;DHT22;25037;49.488;9.900;2022-10-16T02:10:39;17.50;79.10
39325;DHT22;25037;49.488;9.900;2022-10-16T02:13:17;17.50;79.10
39325;DHT22;25037;49.488;9.900;2022-10-16T02:15:43;17.50;79.20
39325;DHT22;25037;49.488;9.900;2022-10-16T02:18:09;17.40;79.10
39325;DHT22;25037;49.488;9.900;2022-10-16T02:20:49;17.50;79.20
39325;DHT22;25037;49.488;9.900;2022-10-16T02:23:22;17.50;79.20
39325;DHT22;25037;49.488;9.900;2022-10-16T02:25:50;17.50;79.20
39325;DHT22;25037;49.488;9.900;2022-10-16T02:28:28;17.50;79.20
39325;DHT22;25037;49.488;9.900;2022-10-16T02:31:01;17.50;79.20
39325;DHT22;25037;49.488;9.900;2022-10-16T02:33:29;17.60;79.20
39325;DHT22;25037;49.488;9.900;2022-10-16T02:35:57;17.60;79.20
39325;DHT22;25037;49.488;9.900;2022-10-16T02:38:23;17.60;79.20
39325;DHT22;25037;49.488;9.900;2022-10-16T02:40:49;17.50;79.30
39325;DHT22;25037;49.488;9.900;2022-10-16T02:43:15;17.60;79.20
39325;DHT22;25037;49.488;9.900;2022-10-16T02:45:41;17.60;79.20
39325;DHT22;25037;49.488;9.900;2022-10-16T02:48:06;17.60;79.20
39325;DHT22;25037;49.488;9.900;2022-10-16T02:50:32;17.60;79.20
39325;DHT22;25037;49.488;9.900;2022-10-16T02:52:58;17.60;79.30
39325;DHT22;25037;49.488;9.900;2022-10-16T02:55:23;17.60;79.20
39325;DHT22;25037;49.488;9.900;2022-10-16T02:57:49;17.60;79.30
39325;DHT22;25037;49.488;9.900;2022-10-16T03:00:16;17.70;79.30
39325;DHT22;25037;49.488;9.900;2022-10-16T03:02:42;17.60;79.30
39325;DHT22;25037;49.488;9.900;2022-10-16T03:05:08;17.70;79.20
39325;DHT22;25037;49.488;9.900;2022-10-16T03:07:34;17.70;79.20
39325;DHT22;25037;49.488;9.900;2022-10-16T03:10:00;17.70;79.20
39325;DHT22;25037;49.488;9.900;2022-10-16T03:12:26;17.70;79.30
39325;DHT22;25037;49.488;9.900;2022-10-16T03:14:52;17.70;79.30
39325;DHT22;25037;49.488;9.900;2022-10-16T03:17:18;17.70;79.30
39325;DHT22;25037;49.488;9.900;2022-10-16T03:19:43;17.70;79.30
39325;DHT22;25037;49.488;9.900;2022-10-16T03:22:09;17.80;79.30
39325;DHT22;25037;49.488;9.900;2022-10-16T03:24:34;17.80;79.30
39325;DHT22;25037;49.488;9.900;2022-10-16T03:27:00;17.80;79.20
39325;DHT22;25037;49.488;9.900;2022-10-16T03:29:26;17.80;79.20
39325;DHT22;25037;49.488;9.900;2022-10-16T03:31:51;17.80;79.20
39325;DHT22;25037;49.488;9.900;2022-10-16T03:34:17;17.80;79.20
39325;DHT22;25037;49.488;9.900;2022-10-16T03:36:42;17.80;79.20
39325;DHT22;25037;49.488;9.900;2022-10-16T03:39:08;17.70;79.30
39325;DHT22;25037;49.488;9.900;2022-10-16T03:41:33;17.70;79.30
39325;DHT22;25037;49.488;9.900;2022-10-16T03:43:59;17.70;79.30
39325;DHT22;25037;49.488;9.900;2022-10-16T03:46:24;17.70;79.30
39325;DHT22;25037;49.488;9.900;2022-10-16T03:48:50;17.70;79.30
39325;DHT22;25037;49.488;9.900;2022-10-16T03:51:15;17.70;79.20
39325;DHT22;25037;49.488;9.900;2022-10-16T03:53:41;17.70;79.20
39325;DHT22;25037;49.488;9.900;2022-10-16T03:56:07;17.60;79.20
39325;DHT22;25037;49.488;9.900;2022-10-16T03:58:32;17.60;79.20
39325;DHT22;25037;49.488;9.900;2022-10-16T04:00:58;17.60;79.20
39325;DHT22;25037;49.488;9.900;2022-10-16T04:03:23;17.50;79.30
39325;DHT22;25037;49.488;9.900;2022-10-16T04:05:49;17.50;79.30
39325;DHT22;25037;49.488;9.900;2022-10-16T04:08:15;17.50;79.20
39325;DHT22;25037;49.488;9.900;2022-10-16T04:10:44;17.50;79.30
39325;DHT22;25037;49.488;9.900;2022-10-16T04:13:10;17.40;79.40
39325;DHT22;25037;49.488;9.900;2022-10-16T04:15:36;17.40;79.40
39325;DHT22;25037;49.488;9.900;2022-10-16T04:18:01;17.40;79.40
39325;DHT22;25037;49.488;9.900;2022-10-16T04:20:27;17.40;79.40
39325;DHT22;25037;49.488;9.900;2022-10-16T04:22:52;17.40;79.50
39325;DHT22;25037;49.488;9.900;2022-10-16T04:25:18;17.40;79.40
39325;DHT22;25037;49.488;9.900;2022-10-16T04:27:43;17.30;79.40
39325;DHT22;25037;49.488;9.900;2022-10-16T04:30:09;17.30;79.40
39325;DHT22;25037;49.488;9.900;2022-10-16T04:32:35;17.30;79.40
39325;DHT22;25037;49.488;9.900;2022-10-16T04:35:00;17.30;79.40
39325;DHT22;25037;49.488;9.900;2022-10-16T04:37:26;17.30;79.40
39325;DHT22;25037;49.488;9.900;2022-10-16T04:39:53;17.30;79.40
39325;DHT22;25037;49.488;9.900;2022-10-16T04:42:19;17.30;79.40
39325;DHT22;25037;49.488;9.900;2022-10-16T04:44:45;17.30;79.40
39325;DHT22;25037;49.488;9.900;2022-10-16T04:47:11;17.30;79.40
39325;DHT22;25037;49.488;9.900;2022-10-16T04:49:36;17.30;79.40
39325;DHT22;25037;49.488;9.900;2022-10-16T04:52:03;17.30;79.40
39325;DHT22;25037;49.488;9.900;2022-10-16T04:54:28;17.30;79.40
39325;DHT22;25037;49.488;9.900;2022-10-16T04:56:54;17.30;79.40
39325;DHT22;25037;49.488;9.900;2022-10-16T04:59:20;17.30;79.40
39325;DHT22;25037;49.488;9.900;2022-10-16T05:01:46;17.30;79.40
39325;DHT22;25037;49.488;9.900;2022-10-16T05:04:12;17.30;79.40
39325;DHT22;25037;49.488;9.900;2022-10-16T05:06:38;17.30;79.40
39325;DHT22;25037;49.488;9.900;2022-10-16T05:09:04;17.20;79.40
39325;DHT22;25037;49.488;9.900;2022-10-16T05:11:30;17.30;79.40
39325;DHT22;25037;49.488;9.900;2022-10-16T05:13:56;17.30;79.50
39325;DHT22;25037;49.488;9.900;2022-10-16T05:16:22;17.20;79.50
39325;DHT22;25037;49.488;9.900;2022-10-16T05:18:47;17.20;79.50
39325;DHT22;25037;49.488;9.900;2022-10-16T05:21:13;17.20;79.50
39325;DHT22;25037;49.488;9.900;2022-10-16T05:23:38;17.20;79.60
39325;DHT22;25037;49.488;9.900;2022-10-16T05:26:04;17.20;79.60
39325;DHT22;25037;49.488;9.900;2022-10-16T05:28:30;17.20;79.60
39325;DHT22;25037;49.488;9.900;2022-10-16T05:30:56;17.20;79.60
39325;DHT22;25037;49.488;9.900;2022-10-16T05:33:24;17.20;79.60
39325;DHT22;25037;49.488;9.900;2022-10-16T05:35:49;17.20;79.60
39325;DHT22;25037;49.488;9.900;2022-10-16T05:38:16;17.20;79.60
39325;DHT22;25037;49.488;9.900;2022-10-16T05:40:42;17.20;79.60
39325;DHT22;25037;49.488;9.900;2022-10-16T05:43:07;17.20;79.50
39325;DHT22;25037;49.488;9.900;2022-10-16T05:45:33;17.20;79.50
39325;DHT22;25037;49.488;9.900;2022-10-16T05:47:59;17.30;79.50
39325;DHT22;25037;49.488;9.900;2022-10-16T05:50:25;17.30;79.50
39325;DHT22;25037;49.488;9.900;2022-10-16T05:52:51;17.20;79.50
39325;DHT22;25037;49.488;9.900;2022-10-16T05:55:16;17.30;79.50
39325;DHT22;25037;49.488;9.900;2022-10-16T05:57:42;17.20;79.50
39325;DHT22;25037;49.488;9.900;2022-10-16T06:00:08;17.20;79.50
39325;DHT22;25037;49.488;9.900;2022-10-16T06:02:33;17.20;79.50
39325;DHT22;25037;49.488;9.900;2022-10-16T06:04:59;17.30;79.50
39325;DHT22;25037;49.488;9.900;2022-10-16T06:07:24;17.30;79.50
39325;DHT22;25037;49.488;9.900;2022-10-16T06:09:51;17.30;79.50
39325;DHT22;25037;49.488;9.900;2022-10-16T06:12:17;17.30;79.50
39325;DHT22;25037;49.488;9.900;2022-10-16T06:14:43;17.30;79.40
39325;DHT22;25037;49.488;9.900;2022-10-16T06:17:09;17.30;79.40
39325;DHT22;25037;49.488;9.900;2022-10-16T06:19:35;17.30;79.40
39325;DHT22;25037;49.488;9.900;2022-10-16T06:22:00;17.30;79.40
39325;DHT22;25037;49.488;9.900;2022-10-16T06:24:27;17.30;79.40
39325;DHT22;25037;49.488;9.900;2022-10-16T06:26:53;17.40;79.40
39325;DHT22;25037;49.488;9.900;2022-10-16T06:29:19;17.40;79.40
39325;DHT22;25037;49.488;9.900;2022-10-16T06:31:44;17.50;79.40
39325;DHT22;25037;49.488;9.900;2022-10-16T06:34:10;17.50;79.30
39325;DHT22;25037;49.488;9.900;2022-10-16T06:36:37;17.50;79.30
39325;DHT22;25037;49.488;9.900;2022-10-16T06:39:03;17.60;79.20
39325;DHT22;25037;49.488;9.900;2022-10-16T06:41:29;17.60;79.20
39325;DHT22;25037;49.488;9.900;2022-10-16T06:43:54;17.70;79.20
39325;DHT22;25037;49.488;9.900;2022-10-16T06:46:22;17.70;79.10
39325;DHT22;25037;49.488;9.900;2022-10-16T06:48:48;17.70;79.10
39325;DHT22;25037;49.488;9.900;2022-10-16T06:51:18;17.80;79.10
39325;DHT22;25037;49.488;9.900;2022-10-16T06:53:46;17.70;79.00
39325;DHT22;25037;49.488;9.900;2022-10-16T06:56:25;17.80;78.90
39325;DHT22;25037;49.488;9.900;2022-10-16T06:58:52;17.80;78.80
39325;DHT22;25037;49.488;9.900;2022-10-16T07:01:19;17.90;78.70
39325;DHT22;25037;49.488;9.900;2022-10-16T07:03:46;17.90;78.60
39325;DHT22;25037;49.488;9.900;2022-10-16T07:06:18;18.00;78.50
39325;DHT22;25037;49.488;9.900;2022-10-16T07:08:46;18.10;78.40
39325;DHT22;25037;49.488;9.900;2022-10-16T07:11:20;18.20;78.30
39325;DHT22;25037;49.488;9.900;2022-10-16T07:13:47;18.30;78.10
39325;DHT22;25037;49.488;9.900;2022-10-16T07:16:18;18.30;78.00
39325;DHT22;25037;49.488;9.900;2022-10-16T07:18:44;18.40;77.80
39325;DHT22;25037;49.488;9.900;2022-10-16T07:21:16;18.50;77.60
39325;DHT22;25037;49.488;9.900;2022-10-16T07:23:43;18.60;77.60
39325;DHT22;25037;49.488;9.900;2022-10-16T07:26:09;18.70;77.50
39325;DHT22;25037;49.488;9.900;2022-10-16T07:28:35;18.70;77.30
39325;DHT22;25037;49.488;9.900;2022-10-16T07:31:06;18.80;77.20
39325;DHT22;25037;49.488;9.900;2022-10-16T07:33:34;18.80;77.10
39325;DHT22;25037;49.488;9.900;2022-10-16T07:36:00;18.90;77.00
39325;DHT22;25037;49.488;9.900;2022-10-16T07:38:26;19.00;77.00
39325;DHT22;25037;49.488;9.900;2022-10-16T07:41:03;19.00;77.10
39325;DHT22;25037;49.488;9.900;2022-10-16T07:43:30;19.10;77.00
39325;DHT22;25037;49.488;9.900;2022-10-16T07:45:56;19.10;77.00
39325;DHT22;25037;49.488;9.900;2022-10-16T07:48:22;19.20;76.80
39325;DHT22;25037;49.488;9.900;2022-10-16T07:50:48;19.20;76.80
39325;DHT22;25037;49.488;9.900;2022-10-16T07:53:14;19.30;76.80
39325;DHT22;25037;49.488;9.900;2022-10-16T07:55:40;19.40;76.90
39325;DHT22;25037;49.488;9.900;2022-10-16T07:58:06;19.50;76.80
39325;DHT22;25037;49.488;9.900;2022-10-16T08:00:32;19.60;76.70
39325;DHT22;25037;49.488;9.900;2022-10-16T08:02:58;19.60;76.60
39325;DHT22;25037;49.488;9.900;2022-10-16T08:05:27;19.80;76.40
39325;DHT22;25037;49.488;9.900;2022-10-16T08:07:53;20.00;76.20
39325;DHT22;25037;49.488;9.900;2022-10-16T08:10:20;20.40;75.60
39325;DHT22;25037;49.488;9.900;2022-10-16T08:12:46;20.70;74.50
39325;DHT22;25037;49.488;9.900;2022-10-16T08:15:12;21.10;73.90
39325;DHT22;25037;49.488;9.900;2022-10-16T08:17:37;21.30;73.60
39325;DHT22;25037;49.488;9.900;2022-10-16T08:20:03;21.40;73.00
39325;DHT22;25037;49.488;9.900;2022-10-16T08:22:29;21.40;72.60
39325;DHT22;25037;49.488;9.900;2022-10-16T08:24:55;21.40;72.70
39325;DHT22;25037;49.488;9.900;2022-10-16T08:27:20;21.40;72.40
39325;DHT22;25037;49.488;9.900;2022-10-16T08:29:46;21.30;72.20
39325;DHT22;25037;49.488;9.900;2022-10-16T08:32:11;21.40;72.20
39325;DHT22;25037;49.488;9.900;2022-10-16T08:34:37;21.40;72.00
39325;DHT22;25037;49.488;9.900;2022-10-16T08:37:02;21.40;72.10
39325;DHT22;25037;49.488;9.900;2022-10-16T08:39:28;21.40;72.10
39325;DHT22;25037;49.488;9.900;2022-10-16T08:41:58;21.50;71.80
39325;DHT22;25037;49.488;9.900;2022-10-16T08:44:59;21.60;71.60
39325;DHT22;25037;49.488;9.900;2022-10-16T08:50:27;21.70;71.70
39325;DHT22;25037;49.488;9.900;2022-10-16T08:52:53;21.70;71.60
39325;DHT22;25037;49.488;9.900;2022-10-16T08:55:43;21.80;71.70
39325;DHT22;25037;49.488;9.900;2022-10-16T08:58:20;21.90;71.70
39325;DHT22;25037;49.488;9.900;2022-10-16T09:00:53;22.00;71.20
39325;DHT22;25037;49.488;9.900;2022-10-16T09:03:37;22.10;70.80
39325;DHT22;25037;49.488;9.900;2022-10-16T09:06:17;22.20;71.10
39325;DHT22;25037;49.488;9.900;2022-10-16T09:14:18;22.60;69.40
39325;DHT22;25037;49.488;9.900;2022-10-16T09:17:01;22.80;68.50
39325;DHT22;25037;49.488;9.900;2022-10-16T09:19:44;23.10;67.90
39325;DHT22;25037;49.488;9.900;2022-10-16T09:22:15;23.20;67.00
39325;DHT22;25037;49.488;9.900;2022-10-16T09:24:41;23.30;67.00
39325;DHT22;25037;49.488;9.900;2022-10-16T09:27:11;23.40;66.70
39325;DHT22;25037;49.488;9.900;2022-10-16T09:29:37;23.60;67.00
39325;DHT22;25037;49.488;9.900;2022-10-16T09:32:19;23.60;66.90
39325;DHT22;25037;49.488;9.900;2022-10-16T09:34:49;23.80;66.80
39325;DHT22;25037;49.488;9.900;2022-10-16T09:37:20;23.80;67.30
39325;DHT22;25037;49.488;9.900;2022-10-16T09:39:48;23.90;66.30
39325;DHT22;25037;49.488;9.900;2022-10-16T09:42:37;23.90;65.60
39325;DHT22;25037;49.488;9.900;2022-10-16T09:45:03;23.90;65.10
39325;DHT22;25037;49.488;9.900;2022-10-16T09:47:30;23.80;65.10
39325;DHT22;25037;49.488;9.900;2022-10-16T09:50:02;23.80;65.00
39325;DHT22;25037;49.488;9.900;2022-10-16T09:52:30;23.70;65.30
39325;DHT22;25037;49.488;9.900;2022-10-16T09:54:58;23.70;65.20
39325;DHT22;25037;49.488;9.900;2022-10-16T09:57:24;23.70;64.90
39325;DHT22;25037;49.488;9.900;2022-10-16T09:59:51;23.70;65.00
39325;DHT22;25037;49.488;9.900;2022-10-16T10:02:23;23.70;65.10
39325;DHT22;25037;49.488;9.900;2022-10-16T10:04:53;23.70;65.60
39325;DHT22;25037;49.488;9.900;2022-10-16T10:07:32;23.70;65.50
39325;DHT22;25037;49.488;9.900;2022-10-16T10:09:59;23.90;65.50
39325;DHT22;25037;49.488;9.900;2022-10-16T10:12:30;24.10;65.30
39325;DHT22;25037;49.488;9.900;2022-10-16T10:15:15;24.10;65.50
39325;DHT22;25037;49.488;9.900;2022-10-16T10:17:51;24.20;64.40
39325;DHT22;25037;49.488;9.900;2022-10-16T10:20:35;24.30;64.50
39325;DHT22;25037;49.488;9.900;2022-10-16T10:23:21;24.40;63.90
39325;DHT22;25037;49.488;9.900;2022-10-16T10:26:07;24.40;63.40
39325;DHT22;25037;49.488;9.900;2022-10-16T10:36:46;24.30;63.60
39325;DHT22;25037;49.488;9.900;2022-10-16T10:39:37;24.20;63.30
39325;DHT22;25037;49.488;9.900;2022-10-16T10:42:27;24.30;63.00
39325;DHT22;25037;49.488;9.900;2022-10-16T10:47:47;25.00;61.10
39325;DHT22;25037;49.488;9.900;2022-10-16T10:52:58;24.90;60.60
39325;DHT22;25037;49.488;9.900;2022-10-16T11:05:47;24.80;60.10
39325;DHT22;25037;49.488;9.900;2022-10-16T11:08:35;24.70;60.50
39325;DHT22;25037;49.488;9.900;2022-10-16T11:11:23;24.70;60.50
39325;DHT22;25037;49.488;9.900;2022-10-16T11:16:31;24.40;61.20
39325;DHT22;25037;49.488;9.900;2022-10-16T11:19:22;24.30;61.40
39325;DHT22;25037;49.488;9.900;2022-10-16T11:24:55;24.30;61.80
39325;DHT22;25037;49.488;9.900;2022-10-16T11:27:37;24.40;61.30
39325;DHT22;25037;49.488;9.900;2022-10-16T11:30:08;24.60;61.40
39325;DHT22;25037;49.488;9.900;2022-10-16T11:33:22;24.80;61.10
39325;DHT22;25037;49.488;9.900;2022-10-16T11:36:00;24.90;60.80
39325;DHT22;25037;49.488;9.900;2022-10-16T11:38:39;24.90;59.70
39325;DHT22;25037;49.488;9.900;2022-10-16T11:44:14;24.90;59.90
39325;DHT22;25037;49.488;9.900;2022-10-16T11:46:48;25.00;60.20
39325;DHT22;25037;49.488;9.900;2022-10-16T11:49:19;25.10;60.10
39325;DHT22;25037;49.488;9.900;2022-10-16T11:55:03;25.40;59.30
39325;DHT22;25037;49.488;9.900;2022-10-16T11:57:33;25.50;58.40
39325;DHT22;25037;49.488;9.900;2022-10-16T12:00:38;25.60;58.50
39325;DHT22;25037;49.488;9.900;2022-10-16T12:06:52;25.50;58.60
39325;DHT22;25037;49.488;9.900;2022-10-16T12:08:46;25.40;58.20
39325;DHT22;25037;49.488;9.900;2022-10-16T12:16:59;25.20;58.40
39325;DHT22;25037;49.488;9.900;2022-10-16T12:19:28;25.10;58.80
39325;DHT22;25037;49.488;9.900;2022-10-16T12:21:58;25.00;58.30
39325;DHT22;25037;49.488;9.900;2022-10-16T12:24:42;25.00;58.00
39325;DHT22;25037;49.488;9.900;2022-10-16T12:27:32;24.90;58.50
39325;DHT22;25037;49.488;9.900;2022-10-16T12:30:03;24.90;58.10
39325;DHT22;25037;49.488;9.900;2022-10-16T12:32:37;24.90;57.60
39325;DHT22;25037;49.488;9.900;2022-10-16T12:35:06;24.90;57.70
39325;DHT22;25037;49.488;9.900;2022-10-16T12:37:41;24.90;57.90
39325;DHT22;25037;49.488;9.900;2022-10-16T12:40:31;24.90;58.00
39325;DHT22;25037;49.488;9.900;2022-10-16T12:42:57;25.00;57.50
39325;DHT22;25037;49.488;9.900;2022-10-16T12:45:31;25.00;58.00
39325;DHT22;25037;49.488;9.900;2022-10-16T12:48:02;25.00;57.50
39325;DHT22;25037;49.488;9.900;2022-10-16T12:52:59;25.10;56.60
39325;DHT22;25037;49.488;9.900;2022-10-16T12:55:26;25.10;56.30
39325;DHT22;25037;49.488;9.900;2022-10-16T13:00:45;25.20;56.50
39325;DHT22;25037;49.488;9.900;2022-10-16T13:08:29;25.10;56.00
39325;DHT22;25037;49.488;9.900;2022-10-16T13:21:49;24.90;56.50
39325;DHT22;25037;49.488;9.900;2022-10-16T13:27:53;24.70;57.00
39325;DHT22;25037;49.488;9.900;2022-10-16T13:30:32;24.60;57.10
39325;DHT22;25037;49.488;9.900;2022-10-16T13:33:04;24.50;56.90
39325;DHT22;25037;49.488;9.900;2022-10-16T13:35:33;24.50;57.00
39325;DHT22;25037;49.488;9.900;2022-10-16T13:40:30;24.30;57.40
39325;DHT22;25037;49.488;9.900;2022-10-16T13:42:56;24.30;57.90
39325;DHT22;25037;49.488;9.900;2022-10-16T13:45:25;24.30;57.90
39325;DHT22;25037;49.488;9.900;2022-10-16T13:48:02;24.40;57.90
39325;DHT22;25037;49.488;9.900;2022-10-16T13:50:28;24.40;57.80
39325;DHT22;25037;49.488;9.900;2022-10-16T13:53:04;24.50;58.10
39325;DHT22;25037;49.488;9.900;2022-10-16T13:55:30;24.50;58.10
39325;DHT22;25037;49.488;9.900;2022-10-16T13:58:08;24.50;58.10
39325;DHT22;25037;49.488;9.900;2022-10-16T14:00:37;24.40;57.90
39325;DHT22;25037;49.488;9.900;2022-10-16T14:03:05;24.30;58.30
39325;DHT22;25037;49.488;9.900;2022-10-16T14:05:32;24.20;58.20
39325;DHT22;25037;49.488;9.900;2022-10-16T14:07:58;24.20;58.60
39325;DHT22;25037;49.488;9.900;2022-10-16T14:10:31;24.10;58.20
39325;DHT22;25037;49.488;9.900;2022-10-16T14:13:07;24.10;58.10
39325;DHT22;25037;49.488;9.900;2022-10-16T14:15:35;24.00;58.20
39325;DHT22;25037;49.488;9.900;2022-10-16T14:18:02;24.00;58.50
39325;DHT22;25037;49.488;9.900;2022-10-16T14:20:32;24.00;58.70
39325;DHT22;25037;49.488;9.900;2022-10-16T14:23:00;23.90;58.80
39325;DHT22;25037;49.488;9.900;2022-10-16T14:25:28;24.00;59.00
39325;DHT22;25037;49.488;9.900;2022-10-16T14:28:15;24.00;59.10
39325;DHT22;25037;49.488;9.900;2022-10-16T14:30:54;24.00;59.00
39325;DHT22;25037;49.488;9.900;2022-10-16T14:33:32;24.00;59.20
39325;DHT22;25037;49.488;9.900;2022-10-16T14:36:11;24.00;59.50
39325;DHT22;25037;49.488;9.900;2022-10-16T14:38:39;24.00;59.60
39325;DHT22;25037;49.488;9.900;2022-10-16T14:41:05;24.00;60.10
39325;DHT22;25037;49.488;9.900;2022-10-16T14:43:37;24.00;60.40
39325;DHT22;25037;49.488;9.900;2022-10-16T14:46:09;23.90;60.30
39325;DHT22;25037;49.488;9.900;2022-10-16T14:48:41;23.90;60.90
39325;DHT22;25037;49.488;9.900;2022-10-16T14:51:13;23.80;61.30
39325;DHT22;25037;49.488;9.900;2022-10-16T14:53:40;23.80;61.50
39325;DHT22;25037;49.488;9.900;2022-10-16T14:56:16;23.80;61.60
39325;DHT22;25037;49.488;9.900;2022-10-16T14:58:42;23.80;61.60
39325;DHT22;25037;49.488;9.900;2022-10-16T15:01:09;23.70;61.90
39325;DHT22;25037;49.488;9.900;2022-10-16T15:03:36;23.70;62.10
39325;DHT22;25037;49.488;9.900;2022-10-16T15:06:01;23.60;62.40
39325;DHT22;25037;49.488;9.900;2022-10-16T15:08:27;23.50;62.70
39325;DHT22;25037;49.488;9.900;2022-10-16T15:10:53;23.40;62.90
39325;DHT22;25037;49.488;9.900;2022-10-16T15:13:18;23.40;63.10
39325;DHT22;25037;49.488;9.900;2022-10-16T15:15:45;23.30;63.40
39325;DHT22;25037;49.488;9.900;2022-10-16T15:18:11;23.20;63.70
39325;DHT22;25037;49.488;9.900;2022-10-16T15:20:40;23.10;64.00
39325;DHT22;25037;49.488;9.900;2022-10-16T15:23:16;23.00;64.20
39325;DHT22;25037;49.488;9.900;2022-10-16T15:25:44;22.90;64.50
39325;DHT22;25037;49.488;9.900;2022-10-16T15:28:12;22.80;65.10
39325;DHT22;25037;49.488;9.900;2022-10-16T15:30:38;22.70;65.50
39325;DHT22;25037;49.488;9.900;2022-10-16T15:33:05;22.70;66.00
39325;DHT22;25037;49.488;9.900;2022-10-16T15:35:35;22.60;66.50
39325;DHT22;25037;49.488;9.900;2022-10-16T15:38:00;22.40;66.70
39325;DHT22;25037;49.488;9.900;2022-10-16T15:40:26;22.30;66.90
39325;DHT22;25037;49.488;9.900;2022-10-16T15:42:51;22.30;67.30
39325;DHT22;25037;49.488;9.900;2022-10-16T15:45:17;22.20;67.60
39325;DHT22;25037;49.488;9.900;2022-10-16T15:47:44;22.10;67.70
39325;DHT22;25037;49.488;9.900;2022-10-16T15:50:12;22.00;68.00
39325;DHT22;25037;49.488;9.900;2022-10-16T15:52:38;22.00;68.40
39325;DHT22;25037;49.488;9.900;2022-10-16T15:55:06;21.90;68.60
39325;DHT22;25037;49.488;9.900;2022-10-16T15:57:32;21.80;68.90
39325;DHT22;25037;49.488;9.900;2022-10-16T15:59:58;21.80;69.00
39325;DHT22;25037;49.488;9.900;2022-10-16T16:02:23;21.70;69.30
39325;DHT22;25037;49.488;9.900;2022-10-16T16:04:49;21.70;69.50
39325;DHT22;25037;49.488;9.900;2022-10-16T16:07:14;21.70;69.60
39325;DHT22;25037;49.488;9.900;2022-10-16T16:09:40;21.60;69.70
39325;DHT22;25037;49.488;9.900;2022-10-16T16:12:05;21.60;69.90
39325;DHT22;25037;49.488;9.900;2022-10-16T16:14:31;21.60;70.00
39325;DHT22;25037;49.488;9.900;2022-10-16T16:16:57;21.50;70.10
39325;DHT22;25037;49.488;9.900;2022-10-16T16:19:23;21.40;70.30
39325;DHT22;25037;49.488;9.900;2022-10-16T16:21:49;21.40;70.50
39325;DHT22;25037;49.488;9.900;2022-10-16T16:24:15;21.40;70.70
39325;DHT22;25037;49.488;9.900;2022-10-16T16:26:40;21.30;70.90
39325;DHT22;25037;49.488;9.900;2022-10-16T16:29:11;21.20;71.00
39325;DHT22;25037;49.488;9.900;2022-10-16T16:31:38;21.20;71.20
39325;DHT22;25037;49.488;9.900;2022-10-16T16:34:04;21.10;71.30
39325;DHT22;25037;49.488;9.900;2022-10-16T16:36:30;21.10;71.30
39325;DHT22;25037;49.488;9.900;2022-10-16T16:38:56;21.00;71.30
39325;DHT22;25037;49.488;9.900;2022-10-16T16:41:24;21.00;71.40
39325;DHT22;25037;49.488;9.900;2022-10-16T16:43:51;20.90;71.50
39325;DHT22;25037;49.488;9.900;2022-10-16T16:46:17;20.90;71.60
39325;DHT22;25037;49.488;9.900;2022-10-16T16:48:44;20.80;71.70
39325;DHT22;25037;49.488;9.900;2022-10-16T16:51:11;20.80;71.90
39325;DHT22;25037;49.488;9.900;2022-10-16T16:53:42;20.70;72.10
39325;DHT22;25037;49.488;9.900;2022-10-16T16:56:08;20.60;72.20
39325;DHT22;25037;49.488;9.900;2022-10-16T16:58:34;20.60;72.20
39325;DHT22;25037;49.488;9.900;2022-10-16T17:01:00;20.50;72.40
39325;DHT22;25037;49.488;9.900;2022-10-16T17:03:31;20.40;72.60
39325;DHT22;25037;49.488;9.900;2022-10-16T17:05:59;20.40;72.70
39325;DHT22;25037;49.488;9.900;2022-10-16T17:08:25;20.40;72.70
39325;DHT22;25037;49.488;9.900;2022-10-16T17:10:51;20.40;72.70
39325;DHT22;25037;49.488;9.900;2022-10-16T17:13:21;20.40;72.70
39325;DHT22;25037;49.488;9.900;2022-10-16T17:15:48;20.50;72.60
39325;DHT22;25037;49.488;9.900;2022-10-16T17:18:14;20.50;72.60